Orlando, FL (32807)

6:48 PM EST en Diciembre 18, 2014 (GMT -0500)
Azalea Park | Change Station
CLOSE
Current Station
Estación meteorológica personal
Location: Orlando, Fl
Altura: 104 ft
Estaciones meteorológicas cercanas

Alt 104 ft 28.54 °N, 81.30 °W | Updated 8 seconds ago

Clear
Despejado
57.2 ° F
Sensación térmica 57.2 ° F
N
0.0
Viento Variable Viento desde Oeste
Gusts 0.0 mph

Hoy
Alta -- | Baja -- ° F
--% Posibilidad de precipitaciones
Ayer
Alta -- | Baja -- ° F
Precip. -- pul
7:12 AM 5:31 PM
Creciente menguante, 11% visible
Presión 30.13 pul
Visibilidad 10.0 Millas
Nubes Despejado
Punto de rocío 50 ° F
Humedad 76%
Precipitaciones 0.00 pul
Espesor de la nieve No disponible.
UV 0 de una escala de 12
Polen 6.10 de una escala de 12
Calidad del aire No disponible.
Flu Activity No disponible.
METAR KORL 182253Z 30005KT 10SM CLR 18/08 A3011 RMK AO2 SLP202 T01780078

More Conditions Fewer Conditions

Presión 30.13 pul
Visibilidad 10.0 Millas
Nubes Despejado
Punto de rocío 50 ° F
Humedad 76%
Precipitaciones 0.00 pul
Espesor de la nieve No disponible.
UV 0 de una escala de 12
Polen 6.10 de una escala de 12
Calidad del aire No disponible.
Flu Activity No disponible.
METAR KORL 182253Z 30005KT 10SM CLR 18/08 A3011 RMK AO2 SLP202 T01780078

More Conditions Fewer Conditions

10-Day Weather Forecast

Almanac

Astronomía

Dec. 18, 2014 Salida Puesta
Hora real
Crepúsculo civil
Crepúsculo náutico
Crepúsculo astronómico
Luna
Horas de luz
Horas de luz
Tomorrow will be .
, % of the Moon is Illuminated

Extremos de hoy

Máximos del estado Bajos del estado

Community

WunderPhotos

Upload Photos

1,779,012 ¡fotos cargadas!

WunderBlogs® & News

Nearby

Calidad del aire

  Calidad del aire Índice AQ Contaminante
Not available.

Grosos de nieve

Estación Profundido Altura

Actividad de terremotos

Ciudad Distance Mag. Tiempo y dato
Magnitud mínima muestra es 2,5.

Temperaturas de aguas costeras

Lugar Temperatura

Estaciones meteorológicas cercanas